sensor_id;sensor_type;location;lat;lon;timestamp;P1;durP1;ratioP1;P2;durP2;ratioP2
20000;SDS011;10161;41.188;-8.642;2024-02-21T00:01:14;26.47;;;22.50;;
20000;SDS011;10161;41.188;-8.642;2024-02-21T00:03:42;26.67;;;23.63;;
20000;SDS011;10161;41.188;-8.642;2024-02-21T00:06:09;28.20;;;22.53;;
20000;SDS011;10161;41.188;-8.642;2024-02-21T00:08:39;27.23;;;23.50;;
20000;SDS011;10161;41.188;-8.642;2024-02-21T00:11:06;27.53;;;24.47;;
20000;SDS011;10161;41.188;-8.642;2024-02-21T00:13:34;27.47;;;24.40;;
20000;SDS011;10161;41.188;-8.642;2024-02-21T00:16:01;29.30;;;26.17;;
20000;SDS011;10161;41.188;-8.642;2024-02-21T00:18:28;32.50;;;27.27;;
20000;SDS011;10161;41.188;-8.642;2024-02-21T00:20:55;32.73;;;29.27;;
20000;SDS011;10161;41.188;-8.642;2024-02-21T00:23:22;32.90;;;29.33;;
20000;SDS011;10161;41.188;-8.642;2024-02-21T00:25:49;36.60;;;30.27;;
20000;SDS011;10161;41.188;-8.642;2024-02-21T00:28:16;34.53;;;30.63;;
20000;SDS011;10161;41.188;-8.642;2024-02-21T00:30:44;38.40;;;31.50;;
20000;SDS011;10161;41.188;-8.642;2024-02-21T00:33:13;35.17;;;31.47;;
20000;SDS011;10161;41.188;-8.642;2024-02-21T00:35:40;38.10;;;33.77;;
20000;SDS011;10161;41.188;-8.642;2024-02-21T00:38:07;38.03;;;33.90;;
20000;SDS011;10161;41.188;-8.642;2024-02-21T00:40:34;40.77;;;34.13;;
20000;SDS011;10161;41.188;-8.642;2024-02-21T00:43:01;40.00;;;34.23;;
20000;SDS011;10161;41.188;-8.642;2024-02-21T00:45:29;39.93;;;35.67;;
20000;SDS011;10161;41.188;-8.642;2024-02-21T00:47:57;41.73;;;34.10;;
20000;SDS011;10161;41.188;-8.642;2024-02-21T00:50:24;39.37;;;35.00;;
20000;SDS011;10161;41.188;-8.642;2024-02-21T00:52:51;39.43;;;35.07;;
20000;SDS011;10161;41.188;-8.642;2024-02-21T00:55:18;41.57;;;35.57;;
20000;SDS011;10161;41.188;-8.642;2024-02-21T00:57:45;41.63;;;36.83;;
20000;SDS011;10161;41.188;-8.642;2024-02-21T01:00:12;44.03;;;38.40;;
20000;SDS011;10161;41.188;-8.642;2024-02-21T01:02:39;44.57;;;37.67;;
20000;SDS011;10161;41.188;-8.642;2024-02-21T01:05:08;44.33;;;38.93;;
20000;SDS011;10161;41.188;-8.642;2024-02-21T01:07:35;40.07;;;35.70;;
20000;SDS011;10161;41.188;-8.642;2024-02-21T01:10:02;38.97;;;34.77;;
20000;SDS011;10161;41.188;-8.642;2024-02-21T01:12:29;48.17;;;39.80;;
20000;SDS011;10161;41.188;-8.642;2024-02-21T01:14:56;43.60;;;38.90;;
20000;SDS011;10161;41.188;-8.642;2024-02-21T01:17:23;45.53;;;39.13;;
20000;SDS011;10161;41.188;-8.642;2024-02-21T01:19:50;45.37;;;39.63;;
20000;SDS011;10161;41.188;-8.642;2024-02-21T01:22:18;45.30;;;39.27;;
20000;SDS011;10161;41.188;-8.642;2024-02-21T01:24:45;49.30;;;42.93;;
20000;SDS011;10161;41.188;-8.642;2024-02-21T01:27:12;51.50;;;43.77;;
20000;SDS011;10161;41.188;-8.642;2024-02-21T01:29:39;47.37;;;41.90;;
20000;SDS011;10161;41.188;-8.642;2024-02-21T01:32:06;52.00;;;45.00;;
20000;SDS011;10161;41.188;-8.642;2024-02-21T01:34:33;52.37;;;44.93;;
20000;SDS011;10161;41.188;-8.642;2024-02-21T01:37:00;49.93;;;44.47;;
20000;SDS011;10161;41.188;-8.642;2024-02-21T01:39:31;54.63;;;45.43;;
20000;SDS011;10161;41.188;-8.642;2024-02-21T01:41:58;48.43;;;42.30;;
20000;SDS011;10161;41.188;-8.642;2024-02-21T01:44:25;53.10;;;45.17;;
20000;SDS011;10161;41.188;-8.642;2024-02-21T01:46:52;49.87;;;44.37;;
20000;SDS011;10161;41.188;-8.642;2024-02-21T01:49:19;51.03;;;44.53;;
20000;SDS011;10161;41.188;-8.642;2024-02-21T01:51:47;52.40;;;44.87;;
20000;SDS011;10161;41.188;-8.642;2024-02-21T01:54:14;52.63;;;43.80;;
20000;SDS011;10161;41.188;-8.642;2024-02-21T01:56:43;52.87;;;44.37;;
20000;SDS011;10161;41.188;-8.642;2024-02-21T01:59:10;51.60;;;45.53;;
20000;SDS011;10161;41.188;-8.642;2024-02-21T02:01:38;50.50;;;44.30;;
20000;SDS011;10161;41.188;-8.642;2024-02-21T02:04:05;55.13;;;46.60;;
20000;SDS011;10161;41.188;-8.642;2024-02-21T02:06:33;54.37;;;45.20;;
20000;SDS011;10161;41.188;-8.642;2024-02-21T02:09:00;56.43;;;47.13;;
20000;SDS011;10161;41.188;-8.642;2024-02-21T02:11:27;56.23;;;47.70;;
20000;SDS011;10161;41.188;-8.642;2024-02-21T02:13:56;57.57;;;48.60;;
20000;SDS011;10161;41.188;-8.642;2024-02-21T02:16:23;56.03;;;49.07;;
20000;SDS011;10161;41.188;-8.642;2024-02-21T02:18:49;59.37;;;49.57;;
20000;SDS011;10161;41.188;-8.642;2024-02-21T02:21:23;60.90;;;51.00;;
20000;SDS011;10161;41.188;-8.642;2024-02-21T02:23:55;62.30;;;51.13;;
20000;SDS011;10161;41.188;-8.642;2024-02-21T02:26:22;64.27;;;53.00;;
20000;SDS011;10161;41.188;-8.642;2024-02-21T02:28:49;63.37;;;54.83;;
20000;SDS011;10161;41.188;-8.642;2024-02-21T02:31:16;63.07;;;54.23;;
20000;SDS011;10161;41.188;-8.642;2024-02-21T02:33:43;62.10;;;51.97;;
20000;SDS011;10161;41.188;-8.642;2024-02-21T02:36:10;64.20;;;52.93;;
20000;SDS011;10161;41.188;-8.642;2024-02-21T02:38:37;66.00;;;54.17;;
20000;SDS011;10161;41.188;-8.642;2024-02-21T02:41:05;68.30;;;56.63;;
20000;SDS011;10161;41.188;-8.642;2024-02-21T02:43:32;66.00;;;54.30;;
20000;SDS011;10161;41.188;-8.642;2024-02-21T02:45:59;67.70;;;54.40;;
20000;SDS011;10161;41.188;-8.642;2024-02-21T02:48:26;63.03;;;53.87;;
20000;SDS011;10161;41.188;-8.642;2024-02-21T02:50:53;64.93;;;54.50;;
20000;SDS011;10161;41.188;-8.642;2024-02-21T02:53:20;64.00;;;54.20;;
20000;SDS011;10161;41.188;-8.642;2024-02-21T02:55:47;65.30;;;54.80;;
20000;SDS011;10161;41.188;-8.642;2024-02-21T02:58:15;65.30;;;55.00;;
20000;SDS011;10161;41.188;-8.642;2024-02-21T03:00:42;66.43;;;55.23;;
20000;SDS011;10161;41.188;-8.642;2024-02-21T03:03:09;69.50;;;57.20;;
20000;SDS011;10161;41.188;-8.642;2024-02-21T03:05:36;62.90;;;53.70;;
20000;SDS011;10161;41.188;-8.642;2024-02-21T03:08:03;66.33;;;54.57;;
20000;SDS011;10161;41.188;-8.642;2024-02-21T03:10:32;70.20;;;57.20;;
20000;SDS011;10161;41.188;-8.642;2024-02-21T03:12:59;65.40;;;54.50;;
20000;SDS011;10161;41.188;-8.642;2024-02-21T03:15:27;67.37;;;56.20;;
20000;SDS011;10161;41.188;-8.642;2024-02-21T03:17:54;69.43;;;58.00;;
20000;SDS011;10161;41.188;-8.642;2024-02-21T03:20:22;72.37;;;57.90;;
20000;SDS011;10161;41.188;-8.642;2024-02-21T03:22:48;73.63;;;58.00;;
20000;SDS011;10161;41.188;-8.642;2024-02-21T03:25:16;73.00;;;59.60;;
20000;SDS011;10161;41.188;-8.642;2024-02-21T03:27:44;73.70;;;58.60;;
20000;SDS011;10161;41.188;-8.642;2024-02-21T03:30:12;77.43;;;61.47;;
20000;SDS011;10161;41.188;-8.642;2024-02-21T03:32:40;74.20;;;63.57;;
20000;SDS011;10161;41.188;-8.642;2024-02-21T03:35:07;78.17;;;61.40;;
20000;SDS011;10161;41.188;-8.642;2024-02-21T03:37:34;75.07;;;61.60;;
20000;SDS011;10161;41.188;-8.642;2024-02-21T03:40:01;73.00;;;59.00;;
20000;SDS011;10161;41.188;-8.642;2024-02-21T03:42:28;77.17;;;62.87;;
20000;SDS011;10161;41.188;-8.642;2024-02-21T03:44:56;75.90;;;61.40;;
20000;SDS011;10161;41.188;-8.642;2024-02-21T03:47:23;75.60;;;61.93;;
20000;SDS011;10161;41.188;-8.642;2024-02-21T03:49:52;82.30;;;66.40;;
20000;SDS011;10161;41.188;-8.642;2024-02-21T03:52:19;81.37;;;63.10;;
20000;SDS011;10161;41.188;-8.642;2024-02-21T03:54:46;80.67;;;62.90;;
20000;SDS011;10161;41.188;-8.642;2024-02-21T03:57:13;72.43;;;59.70;;
20000;SDS011;10161;41.188;-8.642;2024-02-21T03:59:39;75.40;;;60.17;;
20000;SDS011;10161;41.188;-8.642;2024-02-21T04:02:06;74.37;;;60.80;;
20000;SDS011;10161;41.188;-8.642;2024-02-21T04:04:34;78.70;;;62.30;;
20000;SDS011;10161;41.188;-8.642;2024-02-21T04:07:04;82.70;;;63.67;;
20000;SDS011;10161;41.188;-8.642;2024-02-21T04:09:32;77.80;;;64.47;;
20000;SDS011;10161;41.188;-8.642;2024-02-21T04:11:59;82.10;;;62.20;;
20000;SDS011;10161;41.188;-8.642;2024-02-21T04:14:26;83.90;;;68.37;;
20000;SDS011;10161;41.188;-8.642;2024-02-21T04:16:53;82.70;;;67.17;;
20000;SDS011;10161;41.188;-8.642;2024-02-21T04:19:20;84.30;;;64.97;;
20000;SDS011;10161;41.188;-8.642;2024-02-21T04:21:47;91.33;;;70.53;;
20000;SDS011;10161;41.188;-8.642;2024-02-21T04:24:15;87.47;;;67.83;;
20000;SDS011;10161;41.188;-8.642;2024-02-21T04:26:42;90.03;;;71.20;;
20000;SDS011;10161;41.188;-8.642;2024-02-21T04:29:10;89.70;;;70.10;;
20000;SDS011;10161;41.188;-8.642;2024-02-21T04:31:37;84.83;;;69.80;;
20000;SDS011;10161;41.188;-8.642;2024-02-21T04:34:05;90.93;;;69.40;;
20000;SDS011;10161;41.188;-8.642;2024-02-21T04:36:32;85.40;;;69.67;;
20000;SDS011;10161;41.188;-8.642;2024-02-21T04:39:01;86.47;;;67.67;;
20000;SDS011;10161;41.188;-8.642;2024-02-21T04:41:29;87.13;;;67.67;;
20000;SDS011;10161;41.188;-8.642;2024-02-21T04:43:56;91.27;;;68.10;;
20000;SDS011;10161;41.188;-8.642;2024-02-21T04:46:23;84.10;;;67.80;;
20000;SDS011;10161;41.188;-8.642;2024-02-21T04:48:50;84.47;;;69.30;;
20000;SDS011;10161;41.188;-8.642;2024-02-21T04:51:17;90.23;;;69.10;;
20000;SDS011;10161;41.188;-8.642;2024-02-21T04:53:43;89.40;;;68.77;;
20000;SDS011;10161;41.188;-8.642;2024-02-21T04:56:10;89.37;;;68.80;;
20000;SDS011;10161;41.188;-8.642;2024-02-21T04:58:39;86.40;;;67.90;;
20000;SDS011;10161;41.188;-8.642;2024-02-21T05:01:06;89.67;;;68.30;;
20000;SDS011;10161;41.188;-8.642;2024-02-21T05:03:34;90.43;;;68.93;;
20000;SDS011;10161;41.188;-8.642;2024-02-21T05:06:00;90.70;;;72.20;;
20000;SDS011;10161;41.188;-8.642;2024-02-21T05:08:27;94.07;;;71.90;;
20000;SDS011;10161;41.188;-8.642;2024-02-21T05:10:54;96.50;;;73.43;;
20000;SDS011;10161;41.188;-8.642;2024-02-21T05:13:21;94.83;;;73.90;;
20000;SDS011;10161;41.188;-8.642;2024-02-21T05:15:49;93.57;;;73.10;;
20000;SDS011;10161;41.188;-8.642;2024-02-21T05:18:16;98.57;;;74.37;;
20000;SDS011;10161;41.188;-8.642;2024-02-21T05:20:44;94.37;;;72.80;;
20000;SDS011;10161;41.188;-8.642;2024-02-21T05:23:11;96.17;;;73.37;;
20000;SDS011;10161;41.188;-8.642;2024-02-21T05:25:38;94.20;;;72.93;;
20000;SDS011;10161;41.188;-8.642;2024-02-21T05:28:05;93.27;;;73.23;;
20000;SDS011;10161;41.188;-8.642;2024-02-21T05:30:32;95.63;;;75.13;;
20000;SDS011;10161;41.188;-8.642;2024-02-21T05:33:03;94.97;;;73.83;;
20000;SDS011;10161;41.188;-8.642;2024-02-21T05:35:30;97.67;;;75.80;;
20000;SDS011;10161;41.188;-8.642;2024-02-21T05:37:57;99.07;;;75.87;;
20000;SDS011;10161;41.188;-8.642;2024-02-21T05:40:25;99.20;;;75.70;;
20000;SDS011;10161;41.188;-8.642;2024-02-21T05:42:52;96.27;;;73.57;;
20000;SDS011;10161;41.188;-8.642;2024-02-21T05:45:19;105.23;;;76.47;;
20000;SDS011;10161;41.188;-8.642;2024-02-21T05:47:46;100.17;;;75.10;;
20000;SDS011;10161;41.188;-8.642;2024-02-21T05:50:14;100.73;;;75.90;;
20000;SDS011;10161;41.188;-8.642;2024-02-21T05:52:42;101.13;;;76.40;;
20000;SDS011;10161;41.188;-8.642;2024-02-21T05:55:09;99.47;;;76.13;;
20000;SDS011;10161;41.188;-8.642;2024-02-21T05:57:36;105.80;;;80.10;;
20000;SDS011;10161;41.188;-8.642;2024-02-21T06:00:04;103.40;;;79.13;;
20000;SDS011;10161;41.188;-8.642;2024-02-21T06:02:31;110.37;;;81.80;;
20000;SDS011;10161;41.188;-8.642;2024-02-21T06:04:58;104.43;;;79.73;;
20000;SDS011;10161;41.188;-8.642;2024-02-21T06:07:26;105.00;;;78.13;;
20000;SDS011;10161;41.188;-8.642;2024-02-21T06:09:54;106.27;;;83.40;;
20000;SDS011;10161;41.188;-8.642;2024-02-21T06:12:20;102.17;;;79.17;;
20000;SDS011;10161;41.188;-8.642;2024-02-21T06:14:47;106.97;;;79.80;;
20000;SDS011;10161;41.188;-8.642;2024-02-21T06:17:14;109.03;;;82.97;;
20000;SDS011;10161;41.188;-8.642;2024-02-21T06:19:42;105.20;;;81.30;;
20000;SDS011;10161;41.188;-8.642;2024-02-21T06:22:09;103.03;;;78.87;;
20000;SDS011;10161;41.188;-8.642;2024-02-21T06:24:38;103.97;;;79.67;;
20000;SDS011;10161;41.188;-8.642;2024-02-21T06:27:05;107.27;;;79.93;;
20000;SDS011;10161;41.188;-8.642;2024-02-21T06:29:32;103.43;;;79.30;;
20000;SDS011;10161;41.188;-8.642;2024-02-21T06:31:59;98.33;;;75.83;;
20000;SDS011;10161;41.188;-8.642;2024-02-21T06:34:26;106.47;;;78.47;;
20000;SDS011;10161;41.188;-8.642;2024-02-21T06:36:53;104.57;;;78.07;;
20000;SDS011;10161;41.188;-8.642;2024-02-21T06:39:20;106.37;;;79.23;;
20000;SDS011;10161;41.188;-8.642;2024-02-21T06:41:49;97.40;;;75.80;;
20000;SDS011;10161;41.188;-8.642;2024-02-21T06:44:18;102.00;;;76.43;;
20000;SDS011;10161;41.188;-8.642;2024-02-21T06:46:45;101.60;;;76.67;;
20000;SDS011;10161;41.188;-8.642;2024-02-21T06:49:12;101.60;;;76.40;;
20000;SDS011;10161;41.188;-8.642;2024-02-21T06:51:41;101.17;;;74.87;;
20000;SDS011;10161;41.188;-8.642;2024-02-21T06:54:08;100.30;;;76.17;;
20000;SDS011;10161;41.188;-8.642;2024-02-21T06:56:36;99.23;;;75.73;;
20000;SDS011;10161;41.188;-8.642;2024-02-21T06:59:04;105.97;;;76.47;;
20000;SDS011;10161;41.188;-8.642;2024-02-21T07:01:33;100.80;;;75.40;;
20000;SDS011;10161;41.188;-8.642;2024-02-21T07:04:00;98.87;;;74.10;;
20000;SDS011;10161;41.188;-8.642;2024-02-21T07:06:27;98.13;;;73.47;;
20000;SDS011;10161;41.188;-8.642;2024-02-21T07:08:54;92.20;;;68.63;;
20000;SDS011;10161;41.188;-8.642;2024-02-21T07:11:21;86.77;;;66.83;;
20000;SDS011;10161;41.188;-8.642;2024-02-21T07:13:48;88.53;;;64.30;;
20000;SDS011;10161;41.188;-8.642;2024-02-21T07:16:16;81.30;;;62.90;;
20000;SDS011;10161;41.188;-8.642;2024-02-21T07:18:43;81.13;;;61.30;;
20000;SDS011;10161;41.188;-8.642;2024-02-21T07:21:10;78.57;;;59.00;;
20000;SDS011;10161;41.188;-8.642;2024-02-21T07:23:40;75.83;;;59.30;;
20000;SDS011;10161;41.188;-8.642;2024-02-21T07:26:07;68.50;;;54.97;;
20000;SDS011;10161;41.188;-8.642;2024-02-21T07:28:34;70.17;;;53.63;;
20000;SDS011;10161;41.188;-8.642;2024-02-21T07:31:01;68.67;;;50.90;;
20000;SDS011;10161;41.188;-8.642;2024-02-21T07:33:30;63.20;;;50.03;;
20000;SDS011;10161;41.188;-8.642;2024-02-21T07:35:57;66.90;;;51.63;;
20000;SDS011;10161;41.188;-8.642;2024-02-21T07:38:24;65.67;;;48.47;;
20000;SDS011;10161;41.188;-8.642;2024-02-21T07:40:53;53.50;;;45.07;;
20000;SDS011;10161;41.188;-8.642;2024-02-21T07:43:20;56.87;;;43.13;;
20000;SDS011;10161;41.188;-8.642;2024-02-21T07:45:48;56.60;;;43.47;;
20000;SDS011;10161;41.188;-8.642;2024-02-21T07:48:14;52.60;;;40.80;;
20000;SDS011;10161;41.188;-8.642;2024-02-21T07:50:46;51.40;;;41.23;;
20000;SDS011;10161;41.188;-8.642;2024-02-21T07:53:14;55.00;;;42.33;;
20000;SDS011;10161;41.188;-8.642;2024-02-21T07:55:41;53.03;;;40.83;;
20000;SDS011;10161;41.188;-8.642;2024-02-21T07:58:08;47.50;;;38.63;;
20000;SDS011;10161;41.188;-8.642;2024-02-21T08:00:37;49.87;;;37.17;;
20000;SDS011;10161;41.188;-8.642;2024-02-21T08:03:04;45.87;;;36.90;;
20000;SDS011;10161;41.188;-8.642;2024-02-21T08:05:33;42.27;;;34.80;;
20000;SDS011;10161;41.188;-8.642;2024-02-21T08:08:02;42.13;;;34.80;;
20000;SDS011;10161;41.188;-8.642;2024-02-21T08:10:34;43.27;;;32.37;;
20000;SDS011;10161;41.188;-8.642;2024-02-21T08:13:01;41.50;;;33.17;;
20000;SDS011;10161;41.188;-8.642;2024-02-21T08:15:28;42.73;;;32.43;;
20000;SDS011;10161;41.188;-8.642;2024-02-21T08:17:55;39.17;;;31.90;;
20000;SDS011;10161;41.188;-8.642;2024-02-21T08:20:24;39.97;;;31.80;;
20000;SDS011;10161;41.188;-8.642;2024-02-21T08:22:51;40.63;;;31.33;;
20000;SDS011;10161;41.188;-8.642;2024-02-21T08:25:20;40.23;;;31.47;;
20000;SDS011;10161;41.188;-8.642;2024-02-21T08:27:47;38.53;;;30.60;;
20000;SDS011;10161;41.188;-8.642;2024-02-21T08:30:14;43.13;;;32.73;;
20000;SDS011;10161;41.188;-8.642;2024-02-21T08:32:41;39.07;;;30.27;;
20000;SDS011;10161;41.188;-8.642;2024-02-21T08:35:08;37.80;;;30.13;;
20000;SDS011;10161;41.188;-8.642;2024-02-21T08:37:35;37.80;;;29.57;;
20000;SDS011;10161;41.188;-8.642;2024-02-21T08:40:02;34.20;;;27.57;;
20000;SDS011;10161;41.188;-8.642;2024-02-21T08:42:35;35.00;;;27.50;;
20000;SDS011;10161;41.188;-8.642;2024-02-21T08:45:02;33.00;;;26.47;;
20000;SDS011;10161;41.188;-8.642;2024-02-21T08:47:29;31.60;;;24.77;;
20000;SDS011;10161;41.188;-8.642;2024-02-21T08:49:56;29.70;;;24.20;;
20000;SDS011;10161;41.188;-8.642;2024-02-21T08:52:23;30.13;;;24.00;;
20000;SDS011;10161;41.188;-8.642;2024-02-21T08:54:50;28.93;;;23.57;;
20000;SDS011;10161;41.188;-8.642;2024-02-21T08:57:18;31.07;;;23.90;;
20000;SDS011;10161;41.188;-8.642;2024-02-21T08:59:47;29.87;;;22.80;;
20000;SDS011;10161;41.188;-8.642;2024-02-21T09:02:14;29.50;;;23.13;;
20000;SDS011;10161;41.188;-8.642;2024-02-21T09:04:41;30.47;;;23.40;;
20000;SDS011;10161;41.188;-8.642;2024-02-21T09:07:09;27.53;;;21.90;;
20000;SDS011;10161;41.188;-8.642;2024-02-21T09:09:36;33.13;;;24.63;;
20000;SDS011;10161;41.188;-8.642;2024-02-21T09:12:06;28.77;;;23.63;;
20000;SDS011;10161;41.188;-8.642;2024-02-21T09:14:33;28.57;;;23.20;;
20000;SDS011;10161;41.188;-8.642;2024-02-21T09:17:02;29.17;;;23.67;;
20000;SDS011;10161;41.188;-8.642;2024-02-21T09:19:29;30.03;;;23.37;;
20000;SDS011;10161;41.188;-8.642;2024-02-21T09:21:56;30.17;;;22.77;;
20000;SDS011;10161;41.188;-8.642;2024-02-21T09:24:23;26.57;;;23.00;;
20000;SDS011;10161;41.188;-8.642;2024-02-21T09:26:50;27.87;;;22.77;;
20000;SDS011;10161;41.188;-8.642;2024-02-21T09:29:17;31.73;;;24.40;;
20000;SDS011;10161;41.188;-8.642;2024-02-21T09:31:44;31.47;;;24.90;;
20000;SDS011;10161;41.188;-8.642;2024-02-21T09:34:14;34.97;;;26.27;;
20000;SDS011;10161;41.188;-8.642;2024-02-21T09:36:41;36.93;;;27.40;;
20000;SDS011;10161;41.188;-8.642;2024-02-21T09:39:09;36.50;;;27.53;;
20000;SDS011;10161;41.188;-8.642;2024-02-21T09:41:40;31.50;;;25.53;;
20000;SDS011;10161;41.188;-8.642;2024-02-21T09:44:12;31.97;;;23.63;;
20000;SDS011;10161;41.188;-8.642;2024-02-21T09:46:41;32.97;;;23.70;;
20000;SDS011;10161;41.188;-8.642;2024-02-21T09:49:17;31.10;;;23.87;;
20000;SDS011;10161;41.188;-8.642;2024-02-21T09:51:50;30.70;;;23.47;;
20000;SDS011;10161;41.188;-8.642;2024-02-21T09:54:18;31.73;;;24.67;;
20000;SDS011;10161;41.188;-8.642;2024-02-21T09:56:45;34.00;;;24.40;;
20000;SDS011;10161;41.188;-8.642;2024-02-21T09:59:13;33.27;;;25.20;;
20000;SDS011;10161;41.188;-8.642;2024-02-21T10:01:41;34.40;;;24.20;;
20000;SDS011;10161;41.188;-8.642;2024-02-21T10:04:09;33.00;;;24.33;;
20000;SDS011;10161;41.188;-8.642;2024-02-21T10:06:38;34.00;;;25.30;;
20000;SDS011;10161;41.188;-8.642;2024-02-21T10:09:05;36.23;;;26.40;;
20000;SDS011;10161;41.188;-8.642;2024-02-21T10:11:33;31.60;;;24.17;;
20000;SDS011;10161;41.188;-8.642;2024-02-21T10:14:04;30.30;;;23.50;;
20000;SDS011;10161;41.188;-8.642;2024-02-21T10:16:31;28.87;;;21.60;;
20000;SDS011;10161;41.188;-8.642;2024-02-21T10:18:59;29.00;;;21.30;;
20000;SDS011;10161;41.188;-8.642;2024-02-21T10:21:26;31.73;;;23.40;;
20000;SDS011;10161;41.188;-8.642;2024-02-21T10:23:54;27.40;;;21.30;;
20000;SDS011;10161;41.188;-8.642;2024-02-21T10:26:21;28.93;;;22.07;;
20000;SDS011;10161;41.188;-8.642;2024-02-21T10:28:48;28.93;;;20.97;;
20000;SDS011;10161;41.188;-8.642;2024-02-21T10:31:23;27.70;;;20.80;;
20000;SDS011;10161;41.188;-8.642;2024-02-21T10:33:54;27.77;;;20.20;;
20000;SDS011;10161;41.188;-8.642;2024-02-21T10:36:22;27.73;;;20.80;;
20000;SDS011;10161;41.188;-8.642;2024-02-21T10:38:49;26.00;;;19.20;;
20000;SDS011;10161;41.188;-8.642;2024-02-21T10:41:19;28.53;;;19.67;;
20000;SDS011;10161;41.188;-8.642;2024-02-21T10:43:49;26.20;;;19.97;;
20000;SDS011;10161;41.188;-8.642;2024-02-21T10:46:18;23.87;;;18.40;;
20000;SDS011;10161;41.188;-8.642;2024-02-21T10:48:52;26.97;;;19.33;;
20000;SDS011;10161;41.188;-8.642;2024-02-21T10:51:25;25.53;;;19.17;;
20000;SDS011;10161;41.188;-8.642;2024-02-21T10:53:57;27.60;;;19.57;;
20000;SDS011;10161;41.188;-8.642;2024-02-21T10:56:32;25.47;;;18.00;;
20000;SDS011;10161;41.188;-8.642;2024-02-21T10:59:02;28.60;;;19.53;;
20000;SDS011;10161;41.188;-8.642;2024-02-21T11:01:30;30.00;;;20.03;;
20000;SDS011;10161;41.188;-8.642;2024-02-21T11:03:58;29.67;;;20.80;;
20000;SDS011;10161;41.188;-8.642;2024-02-21T11:06:28;28.93;;;20.47;;
20000;SDS011;10161;41.188;-8.642;2024-02-21T11:09:01;27.37;;;20.17;;
20000;SDS011;10161;41.188;-8.642;2024-02-21T11:11:29;27.83;;;19.23;;
20000;SDS011;10161;41.188;-8.642;2024-02-21T11:14:05;28.10;;;19.17;;
20000;SDS011;10161;41.188;-8.642;2024-02-21T11:16:36;26.83;;;18.53;;
20000;SDS011;10161;41.188;-8.642;2024-02-21T11:19:05;27.27;;;17.90;;
20000;SDS011;10161;41.188;-8.642;2024-02-21T11:21:33;25.00;;;17.77;;
20000;SDS011;10161;41.188;-8.642;2024-02-21T11:24:01;25.17;;;17.00;;
20000;SDS011;10161;41.188;-8.642;2024-02-21T11:26:28;27.10;;;16.50;;
20000;SDS011;10161;41.188;-8.642;2024-02-21T11:28:56;22.17;;;16.00;;
20000;SDS011;10161;41.188;-8.642;2024-02-21T11:31:26;22.63;;;16.53;;
20000;SDS011;10161;41.188;-8.642;2024-02-21T11:33:53;22.70;;;15.70;;
20000;SDS011;10161;41.188;-8.642;2024-02-21T11:36:24;23.37;;;15.77;;
20000;SDS011;10161;41.188;-8.642;2024-02-21T11:38:52;23.03;;;15.70;;
20000;SDS011;10161;41.188;-8.642;2024-02-21T11:41:19;20.40;;;14.67;;
20000;SDS011;10161;41.188;-8.642;2024-02-21T11:43:48;18.63;;;14.27;;
20000;SDS011;10161;41.188;-8.642;2024-02-21T11:46:17;18.43;;;13.70;;
20000;SDS011;10161;41.188;-8.642;2024-02-21T11:48:46;19.63;;;14.20;;
20000;SDS011;10161;41.188;-8.642;2024-02-21T11:51:20;20.37;;;13.53;;
20000;SDS011;10161;41.188;-8.642;2024-02-21T11:53:50;19.00;;;13.30;;
20000;SDS011;10161;41.188;-8.642;2024-02-21T11:56:17;17.00;;;12.50;;
20000;SDS011;10161;41.188;-8.642;2024-02-21T11:58:45;18.87;;;11.90;;
20000;SDS011;10161;41.188;-8.642;2024-02-21T12:01:12;16.40;;;12.40;;
20000;SDS011;10161;41.188;-8.642;2024-02-21T12:03:39;18.77;;;11.83;;
20000;SDS011;10161;41.188;-8.642;2024-02-21T12:06:08;17.10;;;12.10;;
20000;SDS011;10161;41.188;-8.642;2024-02-21T12:08:41;15.87;;;11.40;;
20000;SDS011;10161;41.188;-8.642;2024-02-21T12:11:15;15.93;;;11.30;;
20000;SDS011;10161;41.188;-8.642;2024-02-21T12:13:46;14.10;;;10.20;;
20000;SDS011;10161;41.188;-8.642;2024-02-21T12:16:14;15.77;;;9.80;;
20000;SDS011;10161;41.188;-8.642;2024-02-21T12:18:43;13.97;;;9.60;;
20000;SDS011;10161;41.188;-8.642;2024-02-21T12:21:14;11.63;;;8.77;;
20000;SDS011;10161;41.188;-8.642;2024-02-21T12:23:43;12.97;;;9.00;;
20000;SDS011;10161;41.188;-8.642;2024-02-21T12:26:12;10.77;;;8.47;;
20000;SDS011;10161;41.188;-8.642;2024-02-21T12:28:39;10.90;;;7.87;;
20000;SDS011;10161;41.188;-8.642;2024-02-21T12:31:06;10.70;;;8.40;;
20000;SDS011;10161;41.188;-8.642;2024-02-21T12:33:33;9.70;;;7.70;;
20000;SDS011;10161;41.188;-8.642;2024-02-21T12:36:00;9.67;;;7.53;;
20000;SDS011;10161;41.188;-8.642;2024-02-21T12:38:29;9.87;;;7.40;;
20000;SDS011;10161;41.188;-8.642;2024-02-21T12:40:56;9.80;;;7.20;;
20000;SDS011;10161;41.188;-8.642;2024-02-21T12:43:24;8.80;;;7.50;;
20000;SDS011;10161;41.188;-8.642;2024-02-21T12:45:51;10.20;;;6.60;;
20000;SDS011;10161;41.188;-8.642;2024-02-21T12:48:18;8.23;;;6.50;;
20000;SDS011;10161;41.188;-8.642;2024-02-21T12:50:48;7.13;;;5.43;;
20000;SDS011;10161;41.188;-8.642;2024-02-21T12:53:16;9.93;;;6.80;;
20000;SDS011;10161;41.188;-8.642;2024-02-21T12:55:45;11.90;;;6.27;;
20000;SDS011;10161;41.188;-8.642;2024-02-21T12:58:12;8.17;;;6.23;;
20000;SDS011;10161;41.188;-8.642;2024-02-21T13:00:40;6.40;;;5.47;;
20000;SDS011;10161;41.188;-8.642;2024-02-21T13:03:09;7.40;;;5.80;;
20000;SDS011;10161;41.188;-8.642;2024-02-21T13:05:36;8.70;;;6.17;;
20000;SDS011;10161;41.188;-8.642;2024-02-21T13:08:04;9.97;;;6.27;;
20000;SDS011;10161;41.188;-8.642;2024-02-21T13:10:31;6.60;;;5.27;;
20000;SDS011;10161;41.188;-8.642;2024-02-21T13:13:01;5.40;;;4.77;;
20000;SDS011;10161;41.188;-8.642;2024-02-21T13:15:28;5.40;;;4.47;;
20000;SDS011;10161;41.188;-8.642;2024-02-21T13:17:55;6.00;;;4.60;;
20000;SDS011;10161;41.188;-8.642;2024-02-21T13:20:23;5.77;;;4.70;;
20000;SDS011;10161;41.188;-8.642;2024-02-21T13:22:50;5.57;;;4.47;;
20000;SDS011;10161;41.188;-8.642;2024-02-21T13:25:17;4.97;;;4.17;;
20000;SDS011;10161;41.188;-8.642;2024-02-21T13:27:46;5.23;;;4.37;;
20000;SDS011;10161;41.188;-8.642;2024-02-21T13:30:15;5.43;;;4.63;;
20000;SDS011;10161;41.188;-8.642;2024-02-21T13:32:43;4.63;;;4.10;;
20000;SDS011;10161;41.188;-8.642;2024-02-21T13:35:11;4.30;;;3.90;;
20000;SDS011;10161;41.188;-8.642;2024-02-21T13:37:38;4.60;;;3.90;;
20000;SDS011;10161;41.188;-8.642;2024-02-21T13:40:05;4.40;;;3.77;;
20000;SDS011;10161;41.188;-8.642;2024-02-21T13:42:34;4.50;;;4.10;;
20000;SDS011;10161;41.188;-8.642;2024-02-21T13:45:01;4.70;;;3.70;;
20000;SDS011;10161;41.188;-8.642;2024-02-21T13:47:29;3.73;;;3.33;;
20000;SDS011;10161;41.188;-8.642;2024-02-21T13:49:56;3.70;;;3.30;;
20000;SDS011;10161;41.188;-8.642;2024-02-21T13:52:23;4.20;;;3.10;;
20000;SDS011;10161;41.188;-8.642;2024-02-21T13:54:51;3.77;;;3.13;;
20000;SDS011;10161;41.188;-8.642;2024-02-21T13:57:18;3.50;;;3.10;;
20000;SDS011;10161;41.188;-8.642;2024-02-21T13:59:45;4.70;;;3.40;;
20000;SDS011;10161;41.188;-8.642;2024-02-21T14:02:12;3.80;;;2.80;;
20000;SDS011;10161;41.188;-8.642;2024-02-21T14:04:40;3.80;;;3.40;;
20000;SDS011;10161;41.188;-8.642;2024-02-21T14:07:07;4.30;;;3.43;;
20000;SDS011;10161;41.188;-8.642;2024-02-21T14:09:35;3.67;;;3.27;;
20000;SDS011;10161;41.188;-8.642;2024-02-21T14:12:01;6.23;;;5.63;;
20000;SDS011;10161;41.188;-8.642;2024-02-21T14:14:33;16.77;;;15.37;;